sensor_id;sensor_type;location;lat;lon;timestamp;temperature;humidity
16728;DHT22;8482;54.396;18.590;2022-11-25T00:01:15;3.80;99.90
16728;DHT22;8482;54.396;18.590;2022-11-25T00:03:43;3.80;99.90
16728;DHT22;8482;54.396;18.590;2022-11-25T00:06:25;3.80;99.90
16728;DHT22;8482;54.396;18.590;2022-11-25T00:09:01;3.80;99.90
16728;DHT22;8482;54.396;18.590;2022-11-25T00:11:39;3.90;99.90
16728;DHT22;8482;54.396;18.590;2022-11-25T00:14:11;3.90;99.90
16728;DHT22;8482;54.396;18.590;2022-11-25T00:16:40;3.80;99.90
16728;DHT22;8482;54.396;18.590;2022-11-25T00:19:05;3.90;99.90
16728;DHT22;8482;54.396;18.590;2022-11-25T00:21:32;3.90;99.90
16728;DHT22;8482;54.396;18.590;2022-11-25T00:24:01;3.90;99.90
16728;DHT22;8482;54.396;18.590;2022-11-25T00:26:30;3.90;99.90
16728;DHT22;8482;54.396;18.590;2022-11-25T00:28:58;3.90;99.90
16728;DHT22;8482;54.396;18.590;2022-11-25T00:31:30;3.90;99.90
16728;DHT22;8482;54.396;18.590;2022-11-25T00:33:57;3.90;99.90
16728;DHT22;8482;54.396;18.590;2022-11-25T00:36:29;3.90;99.90
16728;DHT22;8482;54.396;18.590;2022-11-25T00:38:58;3.90;99.90
16728;DHT22;8482;54.396;18.590;2022-11-25T00:41:27;4.00;99.90
16728;DHT22;8482;54.396;18.590;2022-11-25T00:44:14;4.00;99.90
16728;DHT22;8482;54.396;18.590;2022-11-25T00:49:31;4.00;99.90
16728;DHT22;8482;54.396;18.590;2022-11-25T00:51:57;4.00;99.90
16728;DHT22;8482;54.396;18.590;2022-11-25T00:54:23;4.00;99.90
16728;DHT22;8482;54.396;18.590;2022-11-25T00:56:49;4.00;99.90
16728;DHT22;8482;54.396;18.590;2022-11-25T00:59:15;4.00;99.90
16728;DHT22;8482;54.396;18.590;2022-11-25T01:01:41;3.90;99.90
16728;DHT22;8482;54.396;18.590;2022-11-25T01:04:07;4.00;99.90
16728;DHT22;8482;54.396;18.590;2022-11-25T01:06:35;4.00;99.90
16728;DHT22;8482;54.396;18.590;2022-11-25T01:09:01;4.00;99.90
16728;DHT22;8482;54.396;18.590;2022-11-25T01:11:28;4.00;99.90
16728;DHT22;8482;54.396;18.590;2022-11-25T01:13:54;4.00;99.90
16728;DHT22;8482;54.396;18.590;2022-11-25T01:16:21;4.00;99.90
16728;DHT22;8482;54.396;18.590;2022-11-25T01:18:47;4.00;99.90
16728;DHT22;8482;54.396;18.590;2022-11-25T01:21:21;4.00;99.90
16728;DHT22;8482;54.396;18.590;2022-11-25T01:23:49;4.00;99.90
16728;DHT22;8482;54.396;18.590;2022-11-25T01:26:18;4.00;99.90
16728;DHT22;8482;54.396;18.590;2022-11-25T01:28:46;4.00;99.90
16728;DHT22;8482;54.396;18.590;2022-11-25T01:31:18;4.00;99.90
16728;DHT22;8482;54.396;18.590;2022-11-25T01:33:46;4.00;99.90
16728;DHT22;8482;54.396;18.590;2022-11-25T01:36:15;4.00;99.90
16728;DHT22;8482;54.396;18.590;2022-11-25T01:38:43;4.00;99.90
16728;DHT22;8482;54.396;18.590;2022-11-25T01:41:12;4.00;99.90
16728;DHT22;8482;54.396;18.590;2022-11-25T01:43:39;4.00;99.90
16728;DHT22;8482;54.396;18.590;2022-11-25T01:49:00;4.00;99.90
16728;DHT22;8482;54.396;18.590;2022-11-25T01:54:37;4.00;99.90
16728;DHT22;8482;54.396;18.590;2022-11-25T01:57:33;4.00;99.90
16728;DHT22;8482;54.396;18.590;2022-11-25T02:00:07;4.00;99.90
16728;DHT22;8482;54.396;18.590;2022-11-25T02:02:33;4.00;99.90
16728;DHT22;8482;54.396;18.590;2022-11-25T02:05:03;4.00;99.90
16728;DHT22;8482;54.396;18.590;2022-11-25T02:07:39;4.00;99.90
16728;DHT22;8482;54.396;18.590;2022-11-25T02:10:11;4.00;99.90
16728;DHT22;8482;54.396;18.590;2022-11-25T02:12:41;4.00;99.90
16728;DHT22;8482;54.396;18.590;2022-11-25T02:15:10;4.00;99.90
16728;DHT22;8482;54.396;18.590;2022-11-25T02:17:37;4.00;99.90
16728;DHT22;8482;54.396;18.590;2022-11-25T02:20:12;4.00;99.90
16728;DHT22;8482;54.396;18.590;2022-11-25T02:23:11;4.00;99.90
16728;DHT22;8482;54.396;18.590;2022-11-25T02:25:44;4.00;99.90
16728;DHT22;8482;54.396;18.590;2022-11-25T02:28:18;4.00;99.90
16728;DHT22;8482;54.396;18.590;2022-11-25T02:30:48;4.00;99.90
16728;DHT22;8482;54.396;18.590;2022-11-25T02:33:14;4.00;99.90
16728;DHT22;8482;54.396;18.590;2022-11-25T02:35:42;4.00;99.90
16728;DHT22;8482;54.396;18.590;2022-11-25T02:38:19;4.00;99.90
16728;DHT22;8482;54.396;18.590;2022-11-25T02:44:01;4.00;99.90
16728;DHT22;8482;54.396;18.590;2022-11-25T02:46:28;4.00;99.90
16728;DHT22;8482;54.396;18.590;2022-11-25T02:48:56;4.00;99.90
16728;DHT22;8482;54.396;18.590;2022-11-25T02:51:26;4.00;99.90
16728;DHT22;8482;54.396;18.590;2022-11-25T02:53:54;4.00;99.90
16728;DHT22;8482;54.396;18.590;2022-11-25T02:56:26;3.90;99.90
16728;DHT22;8482;54.396;18.590;2022-11-25T02:58:56;3.90;99.90
16728;DHT22;8482;54.396;18.590;2022-11-25T03:01:22;3.90;99.90
16728;DHT22;8482;54.396;18.590;2022-11-25T03:03:48;3.90;99.90
16728;DHT22;8482;54.396;18.590;2022-11-25T03:06:14;3.90;99.90
16728;DHT22;8482;54.396;18.590;2022-11-25T03:08:40;3.90;99.90
16728;DHT22;8482;54.396;18.590;2022-11-25T03:11:06;3.90;99.90
16728;DHT22;8482;54.396;18.590;2022-11-25T03:13:32;3.90;99.90
16728;DHT22;8482;54.396;18.590;2022-11-25T03:15:58;3.90;99.90
16728;DHT22;8482;54.396;18.590;2022-11-25T03:18:24;3.90;99.90
16728;DHT22;8482;54.396;18.590;2022-11-25T03:20:53;3.90;99.90
16728;DHT22;8482;54.396;18.590;2022-11-25T03:23:20;3.90;99.90
16728;DHT22;8482;54.396;18.590;2022-11-25T03:25:47;3.90;99.90
16728;DHT22;8482;54.396;18.590;2022-11-25T03:28:13;3.90;99.90
16728;DHT22;8482;54.396;18.590;2022-11-25T03:30:38;3.90;99.90
16728;DHT22;8482;54.396;18.590;2022-11-25T03:33:04;3.90;99.90
16728;DHT22;8482;54.396;18.590;2022-11-25T03:35:30;3.90;99.90
16728;DHT22;8482;54.396;18.590;2022-11-25T03:37:56;3.90;99.90
16728;DHT22;8482;54.396;18.590;2022-11-25T03:40:22;3.90;99.90
16728;DHT22;8482;54.396;18.590;2022-11-25T03:42:48;3.90;99.90
16728;DHT22;8482;54.396;18.590;2022-11-25T03:45:15;3.90;99.90
16728;DHT22;8482;54.396;18.590;2022-11-25T03:47:42;3.90;99.90
16728;DHT22;8482;54.396;18.590;2022-11-25T03:50:10;3.90;99.90
16728;DHT22;8482;54.396;18.590;2022-11-25T03:52:37;3.90;99.90
16728;DHT22;8482;54.396;18.590;2022-11-25T03:55:04;3.90;99.90
16728;DHT22;8482;54.396;18.590;2022-11-25T03:57:32;3.90;99.90
16728;DHT22;8482;54.396;18.590;2022-11-25T03:59:58;3.80;99.90
16728;DHT22;8482;54.396;18.590;2022-11-25T04:02:24;3.90;99.90
16728;DHT22;8482;54.396;18.590;2022-11-25T04:04:50;3.80;99.90
16728;DHT22;8482;54.396;18.590;2022-11-25T04:07:15;3.90;99.90
16728;DHT22;8482;54.396;18.590;2022-11-25T04:09:41;3.90;99.90
16728;DHT22;8482;54.396;18.590;2022-11-25T04:12:09;3.90;99.90
16728;DHT22;8482;54.396;18.590;2022-11-25T04:15:05;3.90;99.90
16728;DHT22;8482;54.396;18.590;2022-11-25T04:17:31;3.90;99.90
16728;DHT22;8482;54.396;18.590;2022-11-25T04:19:57;3.90;99.90
16728;DHT22;8482;54.396;18.590;2022-11-25T04:22:22;3.90;99.90
16728;DHT22;8482;54.396;18.590;2022-11-25T04:24:48;4.00;99.90
16728;DHT22;8482;54.396;18.590;2022-11-25T04:27:14;4.00;99.90
16728;DHT22;8482;54.396;18.590;2022-11-25T04:29:39;3.90;99.90
16728;DHT22;8482;54.396;18.590;2022-11-25T04:32:05;4.00;99.90
16728;DHT22;8482;54.396;18.590;2022-11-25T04:34:31;4.00;99.90
16728;DHT22;8482;54.396;18.590;2022-11-25T04:36:57;4.00;99.90
16728;DHT22;8482;54.396;18.590;2022-11-25T04:39:22;4.00;99.90
16728;DHT22;8482;54.396;18.590;2022-11-25T04:41:48;4.00;99.90
16728;DHT22;8482;54.396;18.590;2022-11-25T04:44:14;4.00;99.90
16728;DHT22;8482;54.396;18.590;2022-11-25T04:46:40;4.00;99.90
16728;DHT22;8482;54.396;18.590;2022-11-25T04:49:08;4.00;99.90
16728;DHT22;8482;54.396;18.590;2022-11-25T04:51:35;4.00;99.90
16728;DHT22;8482;54.396;18.590;2022-11-25T04:54:01;4.00;99.90
16728;DHT22;8482;54.396;18.590;2022-11-25T04:56:26;4.00;99.90
16728;DHT22;8482;54.396;18.590;2022-11-25T04:58:52;4.00;99.90
16728;DHT22;8482;54.396;18.590;2022-11-25T05:01:37;4.00;99.90
16728;DHT22;8482;54.396;18.590;2022-11-25T05:04:02;4.00;99.90
16728;DHT22;8482;54.396;18.590;2022-11-25T05:06:28;4.00;99.90
16728;DHT22;8482;54.396;18.590;2022-11-25T05:08:54;4.00;99.90
16728;DHT22;8482;54.396;18.590;2022-11-25T05:11:20;4.00;99.90
16728;DHT22;8482;54.396;18.590;2022-11-25T05:13:45;4.00;99.90
16728;DHT22;8482;54.396;18.590;2022-11-25T05:16:11;4.00;99.90
16728;DHT22;8482;54.396;18.590;2022-11-25T05:18:37;4.00;99.90
16728;DHT22;8482;54.396;18.590;2022-11-25T05:21:03;4.00;99.90
16728;DHT22;8482;54.396;18.590;2022-11-25T05:23:30;4.00;99.90
16728;DHT22;8482;54.396;18.590;2022-11-25T05:26:03;4.00;99.90
16728;DHT22;8482;54.396;18.590;2022-11-25T05:28:30;4.00;99.90
16728;DHT22;8482;54.396;18.590;2022-11-25T05:30:57;4.00;99.90
16728;DHT22;8482;54.396;18.590;2022-11-25T05:33:23;4.00;99.90
16728;DHT22;8482;54.396;18.590;2022-11-25T05:35:56;4.00;99.90
16728;DHT22;8482;54.396;18.590;2022-11-25T05:38:24;4.00;99.90
16728;DHT22;8482;54.396;18.590;2022-11-25T05:40:50;4.00;99.90
16728;DHT22;8482;54.396;18.590;2022-11-25T05:43:16;4.00;99.90
16728;DHT22;8482;54.396;18.590;2022-11-25T05:45:43;4.00;99.90
16728;DHT22;8482;54.396;18.590;2022-11-25T05:48:08;4.00;99.90
16728;DHT22;8482;54.396;18.590;2022-11-25T05:50:36;4.00;99.90
16728;DHT22;8482;54.396;18.590;2022-11-25T05:53:02;4.00;99.90
16728;DHT22;8482;54.396;18.590;2022-11-25T05:55:28;4.00;99.90
16728;DHT22;8482;54.396;18.590;2022-11-25T05:57:53;4.00;99.90
16728;DHT22;8482;54.396;18.590;2022-11-25T06:00:19;4.00;99.90
16728;DHT22;8482;54.396;18.590;2022-11-25T06:02:49;4.00;99.90
16728;DHT22;8482;54.396;18.590;2022-11-25T06:05:15;4.00;99.90
16728;DHT22;8482;54.396;18.590;2022-11-25T06:07:41;4.00;99.90
16728;DHT22;8482;54.396;18.590;2022-11-25T06:10:08;4.00;99.90
16728;DHT22;8482;54.396;18.590;2022-11-25T06:12:34;4.00;99.90
16728;DHT22;8482;54.396;18.590;2022-11-25T06:14:59;4.00;99.90
16728;DHT22;8482;54.396;18.590;2022-11-25T06:17:26;4.00;99.90
16728;DHT22;8482;54.396;18.590;2022-11-25T06:19:51;4.00;99.90
16728;DHT22;8482;54.396;18.590;2022-11-25T06:22:17;4.00;99.90
16728;DHT22;8482;54.396;18.590;2022-11-25T06:24:43;4.00;99.90
16728;DHT22;8482;54.396;18.590;2022-11-25T06:27:09;4.00;99.90
16728;DHT22;8482;54.396;18.590;2022-11-25T06:29:34;4.00;99.90
16728;DHT22;8482;54.396;18.590;2022-11-25T06:32:00;4.00;99.90
16728;DHT22;8482;54.396;18.590;2022-11-25T06:34:27;4.00;99.90
16728;DHT22;8482;54.396;18.590;2022-11-25T06:36:53;4.00;99.90
16728;DHT22;8482;54.396;18.590;2022-11-25T06:39:19;4.10;99.90
16728;DHT22;8482;54.396;18.590;2022-11-25T06:41:44;4.00;99.90
16728;DHT22;8482;54.396;18.590;2022-11-25T06:44:12;4.00;99.90
16728;DHT22;8482;54.396;18.590;2022-11-25T06:46:38;4.00;99.90
16728;DHT22;8482;54.396;18.590;2022-11-25T06:49:04;4.00;99.90
16728;DHT22;8482;54.396;18.590;2022-11-25T06:51:30;4.10;99.90
16728;DHT22;8482;54.396;18.590;2022-11-25T06:53:56;4.00;99.90
16728;DHT22;8482;54.396;18.590;2022-11-25T06:56:26;4.00;99.90
16728;DHT22;8482;54.396;18.590;2022-11-25T06:58:54;4.00;99.90
16728;DHT22;8482;54.396;18.590;2022-11-25T07:01:23;4.10;99.90
16728;DHT22;8482;54.396;18.590;2022-11-25T07:03:59;4.00;99.90
16728;DHT22;8482;54.396;18.590;2022-11-25T07:06:28;4.00;99.90
16728;DHT22;8482;54.396;18.590;2022-11-25T07:08:55;4.10;99.90
16728;DHT22;8482;54.396;18.590;2022-11-25T07:11:32;4.10;99.90
16728;DHT22;8482;54.396;18.590;2022-11-25T07:14:06;4.10;99.90
16728;DHT22;8482;54.396;18.590;2022-11-25T07:16:35;4.10;99.90
16728;DHT22;8482;54.396;18.590;2022-11-25T07:19:02;4.10;99.90
16728;DHT22;8482;54.396;18.590;2022-11-25T07:21:29;4.10;99.90
16728;DHT22;8482;54.396;18.590;2022-11-25T07:24:01;4.10;99.90
16728;DHT22;8482;54.396;18.590;2022-11-25T07:26:30;4.10;99.90
16728;DHT22;8482;54.396;18.590;2022-11-25T07:29:04;4.10;99.90
16728;DHT22;8482;54.396;18.590;2022-11-25T07:31:37;4.10;99.90
16728;DHT22;8482;54.396;18.590;2022-11-25T07:34:18;4.20;99.90
16728;DHT22;8482;54.396;18.590;2022-11-25T07:36:46;4.10;99.90
16728;DHT22;8482;54.396;18.590;2022-11-25T07:39:19;4.20;99.90
16728;DHT22;8482;54.396;18.590;2022-11-25T07:41:53;4.20;99.90
16728;DHT22;8482;54.396;18.590;2022-11-25T07:44:20;4.10;99.90
16728;DHT22;8482;54.396;18.590;2022-11-25T07:46:48;4.20;99.90
16728;DHT22;8482;54.396;18.590;2022-11-25T07:49:20;4.20;99.90
16728;DHT22;8482;54.396;18.590;2022-11-25T07:51:54;4.20;99.90
16728;DHT22;8482;54.396;18.590;2022-11-25T07:54:23;4.20;99.90
16728;DHT22;8482;54.396;18.590;2022-11-25T07:56:50;4.30;99.90
16728;DHT22;8482;54.396;18.590;2022-11-25T07:59:18;4.20;99.90
16728;DHT22;8482;54.396;18.590;2022-11-25T08:01:51;4.30;99.90
16728;DHT22;8482;54.396;18.590;2022-11-25T08:04:18;4.20;99.90
16728;DHT22;8482;54.396;18.590;2022-11-25T08:06:46;4.30;99.90
16728;DHT22;8482;54.396;18.590;2022-11-25T08:09:16;4.30;99.90
16728;DHT22;8482;54.396;18.590;2022-11-25T08:11:47;4.30;99.90
16728;DHT22;8482;54.396;18.590;2022-11-25T08:14:14;4.30;99.90
16728;DHT22;8482;54.396;18.590;2022-11-25T08:16:40;4.30;99.90
16728;DHT22;8482;54.396;18.590;2022-11-25T08:19:08;4.30;99.90
16728;DHT22;8482;54.396;18.590;2022-11-25T08:21:38;4.30;99.90
16728;DHT22;8482;54.396;18.590;2022-11-25T08:24:04;4.30;99.90
16728;DHT22;8482;54.396;18.590;2022-11-25T08:26:34;4.30;99.90
16728;DHT22;8482;54.396;18.590;2022-11-25T08:29:03;4.30;99.90
16728;DHT22;8482;54.396;18.590;2022-11-25T08:31:33;4.30;99.90
16728;DHT22;8482;54.396;18.590;2022-11-25T08:34:02;4.30;99.90
16728;DHT22;8482;54.396;18.590;2022-11-25T08:36:30;4.30;99.90
16728;DHT22;8482;54.396;18.590;2022-11-25T08:38:57;4.40;99.90
16728;DHT22;8482;54.396;18.590;2022-11-25T08:41:30;4.40;99.90
16728;DHT22;8482;54.396;18.590;2022-11-25T08:43:59;4.40;99.90
16728;DHT22;8482;54.396;18.590;2022-11-25T08:46:30;4.40;99.90
16728;DHT22;8482;54.396;18.590;2022-11-25T08:49:02;4.40;99.90
16728;DHT22;8482;54.396;18.590;2022-11-25T08:51:30;4.40;99.90
16728;DHT22;8482;54.396;18.590;2022-11-25T08:53:57;4.40;99.90
16728;DHT22;8482;54.396;18.590;2022-11-25T08:56:25;4.50;99.90
16728;DHT22;8482;54.396;18.590;2022-11-25T08:58:51;4.40;99.90
16728;DHT22;8482;54.396;18.590;2022-11-25T09:01:18;4.50;99.90
16728;DHT22;8482;54.396;18.590;2022-11-25T09:03:47;4.50;99.90
16728;DHT22;8482;54.396;18.590;2022-11-25T09:06:15;4.50;99.90
16728;DHT22;8482;54.396;18.590;2022-11-25T09:08:42;4.50;99.90
16728;DHT22;8482;54.396;18.590;2022-11-25T09:11:10;4.50;99.90
16728;DHT22;8482;54.396;18.590;2022-11-25T09:13:36;4.50;99.90
16728;DHT22;8482;54.396;18.590;2022-11-25T09:16:03;4.50;99.90
16728;DHT22;8482;54.396;18.590;2022-11-25T09:18:29;4.50;99.90
16728;DHT22;8482;54.396;18.590;2022-11-25T09:20:58;4.60;99.90
16728;DHT22;8482;54.396;18.590;2022-11-25T09:23:24;4.60;99.90
16728;DHT22;8482;54.396;18.590;2022-11-25T09:25:52;4.60;99.90
16728;DHT22;8482;54.396;18.590;2022-11-25T09:28:19;4.60;99.90
16728;DHT22;8482;54.396;18.590;2022-11-25T09:30:46;4.60;99.90
16728;DHT22;8482;54.396;18.590;2022-11-25T09:33:12;4.60;99.90
16728;DHT22;8482;54.396;18.590;2022-11-25T09:35:38;4.60;99.90
16728;DHT22;8482;54.396;18.590;2022-11-25T09:38:03;4.60;99.90
16728;DHT22;8482;54.396;18.590;2022-11-25T09:40:53;4.60;99.90
16728;DHT22;8482;54.396;18.590;2022-11-25T09:56:30;4.60;99.90
16728;DHT22;8482;54.396;18.590;2022-11-25T10:02:00;4.70;99.90
16728;DHT22;8482;54.396;18.590;2022-11-25T10:04:42;4.70;99.90
16728;DHT22;8482;54.396;18.590;2022-11-25T10:07:32;4.70;99.90
16728;DHT22;8482;54.396;18.590;2022-11-25T10:10:04;4.70;99.90
16728;DHT22;8482;54.396;18.590;2022-11-25T10:12:42;4.70;99.90
16728;DHT22;8482;54.396;18.590;2022-11-25T10:15:30;4.70;99.90
16728;DHT22;8482;54.396;18.590;2022-11-25T10:18:09;4.70;99.90
16728;DHT22;8482;54.396;18.590;2022-11-25T10:20:42;4.70;99.90
16728;DHT22;8482;54.396;18.590;2022-11-25T10:23:18;4.70;99.90
16728;DHT22;8482;54.396;18.590;2022-11-25T10:25:52;4.70;99.90
16728;DHT22;8482;54.396;18.590;2022-11-25T10:28:31;4.70;99.90
16728;DHT22;8482;54.396;18.590;2022-11-25T10:31:14;4.70;99.90
16728;DHT22;8482;54.396;18.590;2022-11-25T10:33:52;4.70;99.90
16728;DHT22;8482;54.396;18.590;2022-11-25T10:36:48;4.70;99.90
16728;DHT22;8482;54.396;18.590;2022-11-25T10:39:19;4.70;99.90
16728;DHT22;8482;54.396;18.590;2022-11-25T10:42:02;4.70;99.90
16728;DHT22;8482;54.396;18.590;2022-11-25T10:44:35;4.70;99.90
16728;DHT22;8482;54.396;18.590;2022-11-25T10:47:21;4.70;99.90
16728;DHT22;8482;54.396;18.590;2022-11-25T10:55:39;4.80;99.90
16728;DHT22;8482;54.396;18.590;2022-11-25T10:58:32;4.70;99.90
16728;DHT22;8482;54.396;18.590;2022-11-25T11:03:44;4.70;99.90
16728;DHT22;8482;54.396;18.590;2022-11-25T11:06:39;4.80;99.90
16728;DHT22;8482;54.396;18.590;2022-11-25T11:12:23;4.80;99.90
16728;DHT22;8482;54.396;18.590;2022-11-25T11:15:17;4.80;99.90
16728;DHT22;8482;54.396;18.590;2022-11-25T11:17:46;4.70;99.90
16728;DHT22;8482;54.396;18.590;2022-11-25T11:20:18;4.70;99.90
16728;DHT22;8482;54.396;18.590;2022-11-25T11:22:56;4.70;99.90
16728;DHT22;8482;54.396;18.590;2022-11-25T11:25:34;4.70;99.90
16728;DHT22;8482;54.396;18.590;2022-11-25T11:31:21;4.70;99.90
16728;DHT22;8482;54.396;18.590;2022-11-25T11:37:16;4.70;99.90
16728;DHT22;8482;54.396;18.590;2022-11-25T11:39:49;4.70;99.90
16728;DHT22;8482;54.396;18.590;2022-11-25T11:54:07;4.70;99.90
16728;DHT22;8482;54.396;18.590;2022-11-25T11:57:13;4.70;99.90
16728;DHT22;8482;54.396;18.590;2022-11-25T12:00:08;4.70;99.90
16728;DHT22;8482;54.396;18.590;2022-11-25T12:05:37;4.70;99.90
16728;DHT22;8482;54.396;18.590;2022-11-25T12:08:13;4.70;99.90
16728;DHT22;8482;54.396;18.590;2022-11-25T12:16:11;4.70;99.90
16728;DHT22;8482;54.396;18.590;2022-11-25T12:24:35;4.70;99.90
16728;DHT22;8482;54.396;18.590;2022-11-25T12:30:09;4.70;99.90
16728;DHT22;8482;54.396;18.590;2022-11-25T12:32:48;4.70;99.90
16728;DHT22;8482;54.396;18.590;2022-11-25T12:35:40;4.70;99.90
16728;DHT22;8482;54.396;18.590;2022-11-25T12:38:21;4.70;99.90
16728;DHT22;8482;54.396;18.590;2022-11-25T12:41:42;4.70;99.90
16728;DHT22;8482;54.396;18.590;2022-11-25T12:46:51;4.70;99.90
16728;DHT22;8482;54.396;18.590;2022-11-25T13:01:03;4.70;99.90
16728;DHT22;8482;54.396;18.590;2022-11-25T13:15:47;4.70;99.90
16728;DHT22;8482;54.396;18.590;2022-11-25T13:18:19;4.70;99.90
16728;DHT22;8482;54.396;18.590;2022-11-25T13:20:50;4.70;99.90
16728;DHT22;8482;54.396;18.590;2022-11-25T13:25:44;4.70;99.90
16728;DHT22;8482;54.396;18.590;2022-11-25T13:28:30;4.70;99.90
16728;DHT22;8482;54.396;18.590;2022-11-25T13:36:20;4.70;99.90
16728;DHT22;8482;54.396;18.590;2022-11-25T13:46:45;4.70;99.90
16728;DHT22;8482;54.396;18.590;2022-11-25T13:54:39;4.70;99.90
16728;DHT22;8482;54.396;18.590;2022-11-25T14:07:48;4.70;99.90
16728;DHT22;8482;54.396;18.590;2022-11-25T14:19:44;4.70;99.90
16728;DHT22;8482;54.396;18.590;2022-11-25T14:25:53;4.70;99.90
16728;DHT22;8482;54.396;18.590;2022-11-25T14:28:48;4.70;99.90
16728;DHT22;8482;54.396;18.590;2022-11-25T14:31:36;4.60;99.90
16728;DHT22;8482;54.396;18.590;2022-11-25T14:34:37;4.70;99.90
16728;DHT22;8482;54.396;18.590;2022-11-25T14:40:14;4.60;99.90
16728;DHT22;8482;54.396;18.590;2022-11-25T14:42:50;4.70;99.90
16728;DHT22;8482;54.396;18.590;2022-11-25T14:45:27;4.60;99.90
16728;DHT22;8482;54.396;18.590;2022-11-25T14:47:55;4.60;99.90
16728;DHT22;8482;54.396;18.590;2022-11-25T14:50:22;4.60;99.90
16728;DHT22;8482;54.396;18.590;2022-11-25T14:52:48;4.60;99.90
16728;DHT22;8482;54.396;18.590;2022-11-25T14:55:29;4.60;99.90
16728;DHT22;8482;54.396;18.590;2022-11-25T14:57:56;4.60;99.90
16728;DHT22;8482;54.396;18.590;2022-11-25T15:00:22;4.60;99.90
16728;DHT22;8482;54.396;18.590;2022-11-25T15:03:00;4.60;99.90
16728;DHT22;8482;54.396;18.590;2022-11-25T15:05:36;4.60;99.90
16728;DHT22;8482;54.396;18.590;2022-11-25T15:10:41;4.60;99.90
16728;DHT22;8482;54.396;18.590;2022-11-25T15:16:19;4.60;99.90
16728;DHT22;8482;54.396;18.590;2022-11-25T15:18:51;4.60;99.90
16728;DHT22;8482;54.396;18.590;2022-11-25T15:21:43;4.60;99.90
16728;DHT22;8482;54.396;18.590;2022-11-25T15:24:28;4.60;99.90
16728;DHT22;8482;54.396;18.590;2022-11-25T15:27:00;4.60;99.90
16728;DHT22;8482;54.396;18.590;2022-11-25T15:29:29;4.60;99.90
16728;DHT22;8482;54.396;18.590;2022-11-25T15:31:57;4.60;99.90
16728;DHT22;8482;54.396;18.590;2022-11-25T15:34:25;4.60;99.90
16728;DHT22;8482;54.396;18.590;2022-11-25T15:36:54;4.60;99.90
16728;DHT22;8482;54.396;18.590;2022-11-25T15:42:40;4.60;99.90
16728;DHT22;8482;54.396;18.590;2022-11-25T15:47:25;4.60;99.90
16728;DHT22;8482;54.396;18.590;2022-11-25T15:50:05;4.60;99.90
16728;DHT22;8482;54.396;18.590;2022-11-25T15:52:49;4.60;99.90
16728;DHT22;8482;54.396;18.590;2022-11-25T15:55:29;4.60;99.90
16728;DHT22;8482;54.396;18.590;2022-11-25T15:58:02;4.60;99.90
16728;DHT22;8482;54.396;18.590;2022-11-25T16:00:35;4.60;99.90
16728;DHT22;8482;54.396;18.590;2022-11-25T16:03:01;4.50;99.90
16728;DHT22;8482;54.396;18.590;2022-11-25T16:05:35;4.60;99.90
16728;DHT22;8482;54.396;18.590;2022-11-25T16:08:35;4.60;99.90
16728;DHT22;8482;54.396;18.590;2022-11-25T16:11:13;4.60;99.90
16728;DHT22;8482;54.396;18.590;2022-11-25T16:13:44;4.50;99.90
16728;DHT22;8482;54.396;18.590;2022-11-25T16:19:10;4.60;99.90
16728;DHT22;8482;54.396;18.590;2022-11-25T16:21:55;4.50;99.90
16728;DHT22;8482;54.396;18.590;2022-11-25T16:24:26;4.50;99.90
16728;DHT22;8482;54.396;18.590;2022-11-25T16:32:31;4.50;99.90
16728;DHT22;8482;54.396;18.590;2022-11-25T16:35:16;4.50;99.90
16728;DHT22;8482;54.396;18.590;2022-11-25T16:37:45;4.50;99.90
16728;DHT22;8482;54.396;18.590;2022-11-25T16:40:12;4.50;99.90
16728;DHT22;8482;54.396;18.590;2022-11-25T16:42:39;4.50;99.90
16728;DHT22;8482;54.396;18.590;2022-11-25T16:45:18;4.50;99.90
16728;DHT22;8482;54.396;18.590;2022-11-25T16:47:49;4.50;99.90
16728;DHT22;8482;54.396;18.590;2022-11-25T16:50:15;4.50;99.90
16728;DHT22;8482;54.396;18.590;2022-11-25T16:52:43;4.50;99.90
16728;DHT22;8482;54.396;18.590;2022-11-25T16:55:09;4.50;99.90
16728;DHT22;8482;54.396;18.590;2022-11-25T16:57:35;4.50;99.90
16728;DHT22;8482;54.396;18.590;2022-11-25T17:00:06;4.50;99.90
16728;DHT22;8482;54.396;18.590;2022-11-25T17:02:36;4.50;99.90
16728;DHT22;8482;54.396;18.590;2022-11-25T17:05:16;4.50;99.90
16728;DHT22;8482;54.396;18.590;2022-11-25T17:07:50;4.50;99.90
16728;DHT22;8482;54.396;18.590;2022-11-25T17:10:17;4.50;99.90
16728;DHT22;8482;54.396;18.590;2022-11-25T17:12:46;4.50;99.90
16728;DHT22;8482;54.396;18.590;2022-11-25T17:15:23;4.50;99.90
16728;DHT22;8482;54.396;18.590;2022-11-25T17:17:55;4.50;99.90
16728;DHT22;8482;54.396;18.590;2022-11-25T17:20:23;4.50;99.90
16728;DHT22;8482;54.396;18.590;2022-11-25T17:22:53;4.50;99.90
16728;DHT22;8482;54.396;18.590;2022-11-25T17:25:19;4.50;99.90
16728;DHT22;8482;54.396;18.590;2022-11-25T17:27:48;4.50;99.90
16728;DHT22;8482;54.396;18.590;2022-11-25T17:30:24;4.50;99.90
16728;DHT22;8482;54.396;18.590;2022-11-25T17:33:02;4.40;99.90
16728;DHT22;8482;54.396;18.590;2022-11-25T17:35:30;4.50;99.90
16728;DHT22;8482;54.396;18.590;2022-11-25T17:37:59;4.50;99.90
16728;DHT22;8482;54.396;18.590;2022-11-25T17:40:25;4.50;99.90
16728;DHT22;8482;54.396;18.590;2022-11-25T17:42:52;4.50;99.90
16728;DHT22;8482;54.396;18.590;2022-11-25T17:45:19;4.40;99.90
16728;DHT22;8482;54.396;18.590;2022-11-25T17:47:46;4.40;99.90
16728;DHT22;8482;54.396;18.590;2022-11-25T17:52:45;4.40;99.90
16728;DHT22;8482;54.396;18.590;2022-11-25T17:55:11;4.40;99.90
16728;DHT22;8482;54.396;18.590;2022-11-25T17:57:38;4.40;99.90
16728;DHT22;8482;54.396;18.590;2022-11-25T18:00:10;4.40;99.90
16728;DHT22;8482;54.396;18.590;2022-11-25T18:02:39;4.40;99.90
16728;DHT22;8482;54.396;18.590;2022-11-25T18:05:24;4.40;99.90
16728;DHT22;8482;54.396;18.590;2022-11-25T18:07:51;4.30;99.90
16728;DHT22;8482;54.396;18.590;2022-11-25T18:10:20;4.30;99.90
16728;DHT22;8482;54.396;18.590;2022-11-25T18:12:50;4.40;99.90
16728;DHT22;8482;54.396;18.590;2022-11-25T18:15:24;4.30;99.90
16728;DHT22;8482;54.396;18.590;2022-11-25T18:18:03;4.30;99.90
16728;DHT22;8482;54.396;18.590;2022-11-25T18:20:31;4.30;99.90
16728;DHT22;8482;54.396;18.590;2022-11-25T18:22:58;4.30;99.90
16728;DHT22;8482;54.396;18.590;2022-11-25T18:25:28;4.30;99.90
16728;DHT22;8482;54.396;18.590;2022-11-25T18:27:56;4.30;99.90
16728;DHT22;8482;54.396;18.590;2022-11-25T18:30:27;4.30;99.90
16728;DHT22;8482;54.396;18.590;2022-11-25T18:32:55;4.30;99.90
16728;DHT22;8482;54.396;18.590;2022-11-25T18:35:29;4.30;99.90
16728;DHT22;8482;54.396;18.590;2022-11-25T18:37:56;4.30;99.90
16728;DHT22;8482;54.396;18.590;2022-11-25T18:40:27;4.30;99.90
16728;DHT22;8482;54.396;18.590;2022-11-25T18:42:55;4.30;99.90
16728;DHT22;8482;54.396;18.590;2022-11-25T18:45:27;4.20;99.90
16728;DHT22;8482;54.396;18.590;2022-11-25T18:47:55;4.20;99.90
16728;DHT22;8482;54.396;18.590;2022-11-25T18:50:23;4.20;99.90
16728;DHT22;8482;54.396;18.590;2022-11-25T18:52:50;4.20;99.90
16728;DHT22;8482;54.396;18.590;2022-11-25T18:55:21;4.20;99.90
16728;DHT22;8482;54.396;18.590;2022-11-25T18:57:51;4.20;99.90
16728;DHT22;8482;54.396;18.590;2022-11-25T19:00:22;4.20;99.90